Terminal Aerodrome Forecast
Issued by NWS Twin Cities, MN

Home | Current Version | Previous Version | Graphics & Text | Print | Product List | Glossary On
Versions: 1 2 3 4 5 6 7 8 9 10 11 12 13 14 15 16 17 18 19 20 21 22 23 24 25 26
000
FTUS43 KMPX 260822 AAA
TAFMSP
TAF AMD
KMSP 260822Z 2608/2712 18005KT P6SM OVC020
      TEMPO 2610/2612 5SM -SN
     FM261400 25008KT P6SM BKN025
      TEMPO 2614/2617 SCT025 OVC100
     FM262100 30010G19KT P6SM OVC025
     FM270100 32009KT P6SM OVC020=

USA.gov is the U.S. government's official web portal to all federal, state and local government web resources and services.